sensor_id;sensor_type;location;lat;lon;timestamp;P1;durP1;ratioP1;P2;durP2;ratioP2
12165;SDS011;6146;48.128;11.476;2023-12-29T00:01:51;2.07;;;1.87;;
12165;SDS011;6146;48.128;11.476;2023-12-29T00:04:16;3.30;;;2.97;;
12165;SDS011;6146;48.128;11.476;2023-12-29T00:06:42;2.43;;;2.07;;
12165;SDS011;6146;48.128;11.476;2023-12-29T00:09:08;2.67;;;1.70;;
12165;SDS011;6146;48.128;11.476;2023-12-29T00:11:34;1.53;;;1.43;;
12165;SDS011;6146;48.128;11.476;2023-12-29T00:13:59;1.73;;;1.53;;
12165;SDS011;6146;48.128;11.476;2023-12-29T00:16:26;1.50;;;1.40;;
12165;SDS011;6146;48.128;11.476;2023-12-29T00:18:52;1.70;;;1.60;;
12165;SDS011;6146;48.128;11.476;2023-12-29T00:21:18;1.67;;;1.50;;
12165;SDS011;6146;48.128;11.476;2023-12-29T00:23:43;2.07;;;1.50;;
12165;SDS011;6146;48.128;11.476;2023-12-29T00:26:09;2.93;;;1.60;;
12165;SDS011;6146;48.128;11.476;2023-12-29T00:28:34;2.00;;;1.60;;
12165;SDS011;6146;48.128;11.476;2023-12-29T00:31:05;2.03;;;1.30;;
12165;SDS011;6146;48.128;11.476;2023-12-29T00:33:31;2.03;;;1.77;;
12165;SDS011;6146;48.128;11.476;2023-12-29T00:35:57;2.30;;;1.80;;
12165;SDS011;6146;48.128;11.476;2023-12-29T00:38:22;1.97;;;1.77;;
12165;SDS011;6146;48.128;11.476;2023-12-29T00:43:18;1.90;;;1.50;;
12165;SDS011;6146;48.128;11.476;2023-12-29T00:45:43;2.50;;;2.00;;
12165;SDS011;6146;48.128;11.476;2023-12-29T00:48:09;1.80;;;1.60;;
12165;SDS011;6146;48.128;11.476;2023-12-29T00:50:34;1.97;;;1.70;;
12165;SDS011;6146;48.128;11.476;2023-12-29T00:53:00;2.00;;;1.80;;
12165;SDS011;6146;48.128;11.476;2023-12-29T00:55:25;1.60;;;1.47;;
12165;SDS011;6146;48.128;11.476;2023-12-29T00:57:51;2.30;;;1.80;;
12165;SDS011;6146;48.128;11.476;2023-12-29T01:00:17;2.30;;;1.60;;
12165;SDS011;6146;48.128;11.476;2023-12-29T01:02:42;2.47;;;1.80;;
12165;SDS011;6146;48.128;11.476;2023-12-29T01:05:08;1.93;;;1.60;;
12165;SDS011;6146;48.128;11.476;2023-12-29T01:07:33;1.80;;;1.60;;
12165;SDS011;6146;48.128;11.476;2023-12-29T01:09:59;1.90;;;1.70;;
12165;SDS011;6146;48.128;11.476;2023-12-29T01:12:25;2.03;;;1.50;;
12165;SDS011;6146;48.128;11.476;2023-12-29T01:14:51;2.07;;;1.77;;
12165;SDS011;6146;48.128;11.476;2023-12-29T01:17:17;2.03;;;1.83;;
12165;SDS011;6146;48.128;11.476;2023-12-29T01:19:42;2.10;;;1.80;;
12165;SDS011;6146;48.128;11.476;2023-12-29T01:22:08;1.90;;;1.70;;
12165;SDS011;6146;48.128;11.476;2023-12-29T01:24:33;2.20;;;1.67;;
12165;SDS011;6146;48.128;11.476;2023-12-29T01:26:59;1.90;;;1.73;;
12165;SDS011;6146;48.128;11.476;2023-12-29T01:29:24;2.10;;;1.90;;
12165;SDS011;6146;48.128;11.476;2023-12-29T01:31:50;2.20;;;1.80;;
12165;SDS011;6146;48.128;11.476;2023-12-29T01:34:15;2.00;;;1.70;;
12165;SDS011;6146;48.128;11.476;2023-12-29T01:36:41;4.97;;;2.00;;
12165;SDS011;6146;48.128;11.476;2023-12-29T01:39:06;2.10;;;1.77;;
12165;SDS011;6146;48.128;11.476;2023-12-29T01:41:32;3.10;;;1.80;;
12165;SDS011;6146;48.128;11.476;2023-12-29T01:46:27;2.27;;;1.80;;
12165;SDS011;6146;48.128;11.476;2023-12-29T01:48:55;2.47;;;1.90;;
12165;SDS011;6146;48.128;11.476;2023-12-29T01:51:23;2.47;;;1.73;;
12165;SDS011;6146;48.128;11.476;2023-12-29T01:53:51;1.73;;;1.63;;
12165;SDS011;6146;48.128;11.476;2023-12-29T01:56:18;2.40;;;1.97;;
12165;SDS011;6146;48.128;11.476;2023-12-29T01:58:45;1.97;;;1.77;;
12165;SDS011;6146;48.128;11.476;2023-12-29T02:01:13;2.77;;;2.03;;
12165;SDS011;6146;48.128;11.476;2023-12-29T02:03:40;2.43;;;1.90;;
12165;SDS011;6146;48.128;11.476;2023-12-29T02:06:06;1.80;;;1.60;;
12165;SDS011;6146;48.128;11.476;2023-12-29T02:08:32;2.23;;;2.00;;
12165;SDS011;6146;48.128;11.476;2023-12-29T02:10:58;1.90;;;1.70;;
12165;SDS011;6146;48.128;11.476;2023-12-29T02:13:24;2.03;;;1.83;;
12165;SDS011;6146;48.128;11.476;2023-12-29T02:15:53;2.43;;;1.70;;
12165;SDS011;6146;48.128;11.476;2023-12-29T02:18:21;3.77;;;1.80;;
12165;SDS011;6146;48.128;11.476;2023-12-29T02:20:48;2.13;;;1.80;;
12165;SDS011;6146;48.128;11.476;2023-12-29T02:23:14;2.33;;;1.93;;
12165;SDS011;6146;48.128;11.476;2023-12-29T02:25:39;2.10;;;1.90;;
12165;SDS011;6146;48.128;11.476;2023-12-29T02:28:10;3.33;;;1.80;;
12165;SDS011;6146;48.128;11.476;2023-12-29T02:30:55;1.73;;;1.60;;
12165;SDS011;6146;48.128;11.476;2023-12-29T02:33:33;2.30;;;2.00;;
12165;SDS011;6146;48.128;11.476;2023-12-29T02:36:03;2.47;;;2.00;;
12165;SDS011;6146;48.128;11.476;2023-12-29T02:38:30;2.23;;;1.80;;
12165;SDS011;6146;48.128;11.476;2023-12-29T02:40:56;2.03;;;1.83;;
12165;SDS011;6146;48.128;11.476;2023-12-29T02:43:22;2.47;;;2.00;;
12165;SDS011;6146;48.128;11.476;2023-12-29T02:45:48;2.70;;;1.80;;
12165;SDS011;6146;48.128;11.476;2023-12-29T02:48:13;2.30;;;2.00;;
12165;SDS011;6146;48.128;11.476;2023-12-29T02:50:39;2.67;;;1.87;;
12165;SDS011;6146;48.128;11.476;2023-12-29T02:53:04;2.73;;;1.87;;
12165;SDS011;6146;48.128;11.476;2023-12-29T02:55:30;1.83;;;1.70;;
12165;SDS011;6146;48.128;11.476;2023-12-29T02:57:56;1.80;;;1.50;;
12165;SDS011;6146;48.128;11.476;2023-12-29T03:00:21;3.03;;;2.00;;
12165;SDS011;6146;48.128;11.476;2023-12-29T03:02:47;2.83;;;2.00;;
12165;SDS011;6146;48.128;11.476;2023-12-29T03:05:13;2.27;;;2.03;;
12165;SDS011;6146;48.128;11.476;2023-12-29T03:07:39;4.30;;;2.10;;
12165;SDS011;6146;48.128;11.476;2023-12-29T03:10:06;1.93;;;1.73;;
12165;SDS011;6146;48.128;11.476;2023-12-29T03:12:32;2.57;;;2.03;;
12165;SDS011;6146;48.128;11.476;2023-12-29T03:14:57;2.30;;;1.83;;
12165;SDS011;6146;48.128;11.476;2023-12-29T03:17:23;2.10;;;1.90;;
12165;SDS011;6146;48.128;11.476;2023-12-29T03:19:48;2.83;;;2.13;;
12165;SDS011;6146;48.128;11.476;2023-12-29T03:22:14;4.03;;;1.80;;
12165;SDS011;6146;48.128;11.476;2023-12-29T03:24:40;1.73;;;1.60;;
12165;SDS011;6146;48.128;11.476;2023-12-29T03:27:06;2.00;;;1.80;;
12165;SDS011;6146;48.128;11.476;2023-12-29T03:29:32;3.13;;;1.93;;
12165;SDS011;6146;48.128;11.476;2023-12-29T03:31:57;2.20;;;2.00;;
12165;SDS011;6146;48.128;11.476;2023-12-29T03:34:23;2.60;;;2.03;;
12165;SDS011;6146;48.128;11.476;2023-12-29T03:36:48;2.70;;;2.03;;
12165;SDS011;6146;48.128;11.476;2023-12-29T03:39:14;1.90;;;1.80;;
12165;SDS011;6146;48.128;11.476;2023-12-29T03:41:40;2.30;;;1.70;;
12165;SDS011;6146;48.128;11.476;2023-12-29T03:44:05;3.80;;;1.77;;
12165;SDS011;6146;48.128;11.476;2023-12-29T03:46:31;2.50;;;1.93;;
12165;SDS011;6146;48.128;11.476;2023-12-29T03:48:57;2.83;;;2.03;;
12165;SDS011;6146;48.128;11.476;2023-12-29T03:51:23;2.87;;;1.70;;
12165;SDS011;6146;48.128;11.476;2023-12-29T03:53:49;2.40;;;1.80;;
12165;SDS011;6146;48.128;11.476;2023-12-29T03:56:15;3.47;;;1.70;;
12165;SDS011;6146;48.128;11.476;2023-12-29T03:58:42;2.63;;;2.07;;
12165;SDS011;6146;48.128;11.476;2023-12-29T04:01:11;1.83;;;1.63;;
12165;SDS011;6146;48.128;11.476;2023-12-29T04:03:40;2.67;;;1.90;;
12165;SDS011;6146;48.128;11.476;2023-12-29T04:06:06;1.90;;;1.70;;
12165;SDS011;6146;48.128;11.476;2023-12-29T04:08:36;3.13;;;1.60;;
12165;SDS011;6146;48.128;11.476;2023-12-29T04:11:02;2.60;;;1.63;;
12165;SDS011;6146;48.128;11.476;2023-12-29T04:13:29;2.43;;;1.60;;
12165;SDS011;6146;48.128;11.476;2023-12-29T04:15:55;1.93;;;1.73;;
12165;SDS011;6146;48.128;11.476;2023-12-29T04:18:21;1.90;;;1.70;;
12165;SDS011;6146;48.128;11.476;2023-12-29T04:20:47;3.00;;;1.80;;
12165;SDS011;6146;48.128;11.476;2023-12-29T04:23:13;2.03;;;1.80;;
12165;SDS011;6146;48.128;11.476;2023-12-29T04:25:39;1.67;;;1.57;;
12165;SDS011;6146;48.128;11.476;2023-12-29T04:28:05;2.57;;;1.80;;
12165;SDS011;6146;48.128;11.476;2023-12-29T04:30:31;1.77;;;1.50;;
12165;SDS011;6146;48.128;11.476;2023-12-29T04:32:57;2.00;;;1.80;;
12165;SDS011;6146;48.128;11.476;2023-12-29T04:35:23;3.70;;;2.10;;
12165;SDS011;6146;48.128;11.476;2023-12-29T04:37:48;2.10;;;1.80;;
12165;SDS011;6146;48.128;11.476;2023-12-29T04:40:14;2.10;;;1.80;;
12165;SDS011;6146;48.128;11.476;2023-12-29T04:42:40;1.80;;;1.70;;
12165;SDS011;6146;48.128;11.476;2023-12-29T04:45:05;2.10;;;1.90;;
12165;SDS011;6146;48.128;11.476;2023-12-29T04:47:32;2.93;;;2.10;;
12165;SDS011;6146;48.128;11.476;2023-12-29T04:49:57;2.33;;;1.80;;
12165;SDS011;6146;48.128;11.476;2023-12-29T04:52:23;2.50;;;2.03;;
12165;SDS011;6146;48.128;11.476;2023-12-29T04:54:49;2.53;;;2.27;;
12165;SDS011;6146;48.128;11.476;2023-12-29T04:57:14;3.07;;;1.73;;
12165;SDS011;6146;48.128;11.476;2023-12-29T04:59:40;2.10;;;1.90;;
12165;SDS011;6146;48.128;11.476;2023-12-29T05:02:05;2.07;;;1.87;;
12165;SDS011;6146;48.128;11.476;2023-12-29T05:04:31;1.90;;;1.80;;
12165;SDS011;6146;48.128;11.476;2023-12-29T05:06:57;2.10;;;1.90;;
12165;SDS011;6146;48.128;11.476;2023-12-29T05:09:22;3.40;;;2.07;;
12165;SDS011;6146;48.128;11.476;2023-12-29T05:11:48;2.33;;;1.90;;
12165;SDS011;6146;48.128;11.476;2023-12-29T05:14:14;2.10;;;1.70;;
12165;SDS011;6146;48.128;11.476;2023-12-29T05:16:40;2.70;;;2.00;;
12165;SDS011;6146;48.128;11.476;2023-12-29T05:19:07;2.63;;;1.90;;
12165;SDS011;6146;48.128;11.476;2023-12-29T05:21:32;3.47;;;1.70;;
12165;SDS011;6146;48.128;11.476;2023-12-29T05:23:58;2.60;;;2.00;;
12165;SDS011;6146;48.128;11.476;2023-12-29T05:26:24;2.20;;;2.00;;
12165;SDS011;6146;48.128;11.476;2023-12-29T05:28:50;2.53;;;2.17;;
12165;SDS011;6146;48.128;11.476;2023-12-29T05:31:15;1.83;;;1.60;;
12165;SDS011;6146;48.128;11.476;2023-12-29T05:33:41;2.70;;;2.00;;
12165;SDS011;6146;48.128;11.476;2023-12-29T05:36:07;2.07;;;1.80;;
12165;SDS011;6146;48.128;11.476;2023-12-29T05:38:34;2.97;;;2.10;;
12165;SDS011;6146;48.128;11.476;2023-12-29T05:41:01;2.30;;;2.10;;
12165;SDS011;6146;48.128;11.476;2023-12-29T05:43:28;2.37;;;2.03;;
12165;SDS011;6146;48.128;11.476;2023-12-29T05:45:54;3.27;;;2.17;;
12165;SDS011;6146;48.128;11.476;2023-12-29T05:48:19;2.73;;;2.07;;
12165;SDS011;6146;48.128;11.476;2023-12-29T05:50:45;2.70;;;2.17;;
12165;SDS011;6146;48.128;11.476;2023-12-29T05:53:10;2.30;;;2.10;;
12165;SDS011;6146;48.128;11.476;2023-12-29T05:55:36;4.30;;;2.27;;
12165;SDS011;6146;48.128;11.476;2023-12-29T05:58:02;2.40;;;2.10;;
12165;SDS011;6146;48.128;11.476;2023-12-29T06:00:27;2.90;;;2.13;;
12165;SDS011;6146;48.128;11.476;2023-12-29T06:02:53;2.17;;;1.90;;
12165;SDS011;6146;48.128;11.476;2023-12-29T06:05:18;2.20;;;2.00;;
12165;SDS011;6146;48.128;11.476;2023-12-29T06:07:44;2.83;;;2.20;;
12165;SDS011;6146;48.128;11.476;2023-12-29T06:10:10;2.33;;;2.07;;
12165;SDS011;6146;48.128;11.476;2023-12-29T06:12:36;2.57;;;2.20;;
12165;SDS011;6146;48.128;11.476;2023-12-29T06:15:02;2.13;;;1.93;;
12165;SDS011;6146;48.128;11.476;2023-12-29T06:17:28;2.30;;;2.10;;
12165;SDS011;6146;48.128;11.476;2023-12-29T06:19:53;2.30;;;2.10;;
12165;SDS011;6146;48.128;11.476;2023-12-29T06:22:19;2.10;;;1.90;;
12165;SDS011;6146;48.128;11.476;2023-12-29T06:24:45;2.83;;;2.13;;
12165;SDS011;6146;48.128;11.476;2023-12-29T06:27:11;3.23;;;1.97;;
12165;SDS011;6146;48.128;11.476;2023-12-29T06:29:36;2.60;;;1.90;;
12165;SDS011;6146;48.128;11.476;2023-12-29T06:32:02;3.30;;;1.90;;
12165;SDS011;6146;48.128;11.476;2023-12-29T06:34:28;2.43;;;2.10;;
12165;SDS011;6146;48.128;11.476;2023-12-29T06:36:54;2.70;;;2.00;;
12165;SDS011;6146;48.128;11.476;2023-12-29T06:39:20;2.77;;;1.90;;
12165;SDS011;6146;48.128;11.476;2023-12-29T06:41:45;2.47;;;1.97;;
12165;SDS011;6146;48.128;11.476;2023-12-29T06:44:11;2.00;;;1.80;;
12165;SDS011;6146;48.128;11.476;2023-12-29T06:46:37;2.30;;;1.90;;
12165;SDS011;6146;48.128;11.476;2023-12-29T06:49:03;2.07;;;1.87;;
12165;SDS011;6146;48.128;11.476;2023-12-29T06:51:29;1.90;;;1.57;;
12165;SDS011;6146;48.128;11.476;2023-12-29T06:53:55;3.63;;;1.80;;
12165;SDS011;6146;48.128;11.476;2023-12-29T06:56:20;1.97;;;1.53;;
12165;SDS011;6146;48.128;11.476;2023-12-29T06:58:46;2.00;;;1.70;;
12165;SDS011;6146;48.128;11.476;2023-12-29T07:01:12;2.33;;;1.67;;
12165;SDS011;6146;48.128;11.476;2023-12-29T07:03:38;1.70;;;1.60;;
12165;SDS011;6146;48.128;11.476;2023-12-29T07:06:04;2.13;;;1.80;;
12165;SDS011;6146;48.128;11.476;2023-12-29T07:08:29;2.17;;;1.80;;
12165;SDS011;6146;48.128;11.476;2023-12-29T07:10:55;2.03;;;1.77;;
12165;SDS011;6146;48.128;11.476;2023-12-29T07:13:21;2.47;;;2.00;;
12165;SDS011;6146;48.128;11.476;2023-12-29T07:15:47;2.53;;;1.80;;
12165;SDS011;6146;48.128;11.476;2023-12-29T07:18:13;1.80;;;1.60;;
12165;SDS011;6146;48.128;11.476;2023-12-29T07:20:39;2.43;;;1.60;;
12165;SDS011;6146;48.128;11.476;2023-12-29T07:23:04;2.60;;;1.50;;
12165;SDS011;6146;48.128;11.476;2023-12-29T07:25:30;2.97;;;1.80;;
12165;SDS011;6146;48.128;11.476;2023-12-29T07:27:56;2.73;;;1.67;;
12165;SDS011;6146;48.128;11.476;2023-12-29T07:30:21;1.80;;;1.60;;
12165;SDS011;6146;48.128;11.476;2023-12-29T07:32:47;1.60;;;1.50;;
12165;SDS011;6146;48.128;11.476;2023-12-29T07:35:13;2.70;;;1.70;;
12165;SDS011;6146;48.128;11.476;2023-12-29T07:37:42;2.27;;;1.50;;
12165;SDS011;6146;48.128;11.476;2023-12-29T07:40:10;2.37;;;1.70;;
12165;SDS011;6146;48.128;11.476;2023-12-29T07:42:35;1.90;;;1.60;;
12165;SDS011;6146;48.128;11.476;2023-12-29T07:45:01;2.00;;;1.80;;
12165;SDS011;6146;48.128;11.476;2023-12-29T07:47:27;1.60;;;1.47;;
12165;SDS011;6146;48.128;11.476;2023-12-29T07:49:52;1.93;;;1.73;;
12165;SDS011;6146;48.128;11.476;2023-12-29T07:52:18;1.97;;;1.70;;
12165;SDS011;6146;48.128;11.476;2023-12-29T07:54:43;1.90;;;1.70;;
12165;SDS011;6146;48.128;11.476;2023-12-29T07:57:09;2.17;;;1.87;;
12165;SDS011;6146;48.128;11.476;2023-12-29T07:59:35;1.90;;;1.80;;
12165;SDS011;6146;48.128;11.476;2023-12-29T08:02:00;2.10;;;1.90;;
12165;SDS011;6146;48.128;11.476;2023-12-29T08:04:26;2.07;;;1.80;;
12165;SDS011;6146;48.128;11.476;2023-12-29T08:06:51;2.00;;;1.80;;
12165;SDS011;6146;48.128;11.476;2023-12-29T08:09:17;1.60;;;1.50;;
12165;SDS011;6146;48.128;11.476;2023-12-29T08:11:42;2.40;;;1.80;;
12165;SDS011;6146;48.128;11.476;2023-12-29T08:14:08;2.10;;;1.90;;
12165;SDS011;6146;48.128;11.476;2023-12-29T08:16:40;2.47;;;2.03;;
12165;SDS011;6146;48.128;11.476;2023-12-29T08:19:06;2.50;;;1.83;;
12165;SDS011;6146;48.128;11.476;2023-12-29T08:21:32;2.10;;;1.90;;
12165;SDS011;6146;48.128;11.476;2023-12-29T08:23:58;2.30;;;1.90;;
12165;SDS011;6146;48.128;11.476;2023-12-29T08:26:24;2.10;;;1.90;;
12165;SDS011;6146;48.128;11.476;2023-12-29T08:28:51;2.30;;;1.73;;
12165;SDS011;6146;48.128;11.476;2023-12-29T08:31:18;3.00;;;1.80;;
12165;SDS011;6146;48.128;11.476;2023-12-29T08:33:44;2.37;;;1.70;;
12165;SDS011;6146;48.128;11.476;2023-12-29T08:36:10;2.70;;;2.00;;
12165;SDS011;6146;48.128;11.476;2023-12-29T08:38:37;2.37;;;1.83;;
12165;SDS011;6146;48.128;11.476;2023-12-29T08:41:02;1.80;;;1.70;;
12165;SDS011;6146;48.128;11.476;2023-12-29T08:43:28;2.17;;;2.00;;
12165;SDS011;6146;48.128;11.476;2023-12-29T08:45:54;2.10;;;1.90;;
12165;SDS011;6146;48.128;11.476;2023-12-29T08:48:19;2.03;;;1.83;;
12165;SDS011;6146;48.128;11.476;2023-12-29T08:50:45;1.70;;;1.60;;
12165;SDS011;6146;48.128;11.476;2023-12-29T08:53:10;2.07;;;1.87;;
12165;SDS011;6146;48.128;11.476;2023-12-29T08:55:36;1.77;;;1.60;;
12165;SDS011;6146;48.128;11.476;2023-12-29T08:58:02;2.73;;;1.90;;
12165;SDS011;6146;48.128;11.476;2023-12-29T09:00:27;2.03;;;1.90;;
12165;SDS011;6146;48.128;11.476;2023-12-29T09:02:55;2.03;;;1.80;;
12165;SDS011;6146;48.128;11.476;2023-12-29T09:05:21;2.10;;;1.90;;
12165;SDS011;6146;48.128;11.476;2023-12-29T09:07:47;2.53;;;2.17;;
12165;SDS011;6146;48.128;11.476;2023-12-29T09:10:12;2.00;;;1.60;;
12165;SDS011;6146;48.128;11.476;2023-12-29T09:12:39;2.73;;;1.70;;
12165;SDS011;6146;48.128;11.476;2023-12-29T09:15:06;1.80;;;1.70;;
12165;SDS011;6146;48.128;11.476;2023-12-29T09:17:32;1.80;;;1.60;;
12165;SDS011;6146;48.128;11.476;2023-12-29T09:19:58;1.60;;;1.40;;
12165;SDS011;6146;48.128;11.476;2023-12-29T09:22:23;1.60;;;1.50;;
12165;SDS011;6146;48.128;11.476;2023-12-29T09:24:49;1.60;;;1.50;;
12165;SDS011;6146;48.128;11.476;2023-12-29T09:27:15;1.80;;;1.30;;
12165;SDS011;6146;48.128;11.476;2023-12-29T09:29:40;1.97;;;1.60;;
12165;SDS011;6146;48.128;11.476;2023-12-29T09:32:06;1.70;;;1.60;;
12165;SDS011;6146;48.128;11.476;2023-12-29T09:34:32;1.63;;;1.40;;
12165;SDS011;6146;48.128;11.476;2023-12-29T09:36:58;2.07;;;1.50;;
12165;SDS011;6146;48.128;11.476;2023-12-29T09:39:23;2.53;;;1.70;;
12165;SDS011;6146;48.128;11.476;2023-12-29T09:41:51;2.60;;;1.40;;
12165;SDS011;6146;48.128;11.476;2023-12-29T09:44:18;2.20;;;1.60;;
12165;SDS011;6146;48.128;11.476;2023-12-29T09:46:48;1.57;;;1.30;;
12165;SDS011;6146;48.128;11.476;2023-12-29T09:49:15;1.43;;;1.33;;
12165;SDS011;6146;48.128;11.476;2023-12-29T09:51:43;1.77;;;1.50;;
12165;SDS011;6146;48.128;11.476;2023-12-29T09:54:09;1.70;;;1.60;;
12165;SDS011;6146;48.128;11.476;2023-12-29T09:56:36;1.80;;;1.40;;
12165;SDS011;6146;48.128;11.476;2023-12-29T09:59:03;1.60;;;1.50;;
12165;SDS011;6146;48.128;11.476;2023-12-29T10:01:29;1.60;;;1.50;;
12165;SDS011;6146;48.128;11.476;2023-12-29T10:03:59;1.50;;;1.40;;
12165;SDS011;6146;48.128;11.476;2023-12-29T10:06:25;1.40;;;1.30;;
12165;SDS011;6146;48.128;11.476;2023-12-29T10:08:51;1.50;;;1.40;;
12165;SDS011;6146;48.128;11.476;2023-12-29T10:11:21;1.37;;;1.27;;
12165;SDS011;6146;48.128;11.476;2023-12-29T10:13:50;1.30;;;1.20;;
12165;SDS011;6146;48.128;11.476;2023-12-29T10:16:24;1.40;;;1.30;;
12165;SDS011;6146;48.128;11.476;2023-12-29T10:19:05;4.70;;;1.77;;
12165;SDS011;6146;48.128;11.476;2023-12-29T10:21:37;1.30;;;1.20;;
12165;SDS011;6146;48.128;11.476;2023-12-29T10:24:16;1.60;;;1.10;;
12165;SDS011;6146;48.128;11.476;2023-12-29T10:26:44;2.03;;;1.30;;
12165;SDS011;6146;48.128;11.476;2023-12-29T10:29:10;1.87;;;1.50;;
12165;SDS011;6146;48.128;11.476;2023-12-29T10:31:37;1.57;;;1.23;;
12165;SDS011;6146;48.128;11.476;2023-12-29T10:34:22;1.20;;;1.10;;
12165;SDS011;6146;48.128;11.476;2023-12-29T10:36:53;1.67;;;1.13;;
12165;SDS011;6146;48.128;11.476;2023-12-29T10:39:31;3.10;;;1.30;;
12165;SDS011;6146;48.128;11.476;2023-12-29T10:42:15;1.53;;;1.33;;
12165;SDS011;6146;48.128;11.476;2023-12-29T10:44:41;1.47;;;1.10;;
12165;SDS011;6146;48.128;11.476;2023-12-29T10:47:10;1.13;;;0.80;;
12165;SDS011;6146;48.128;11.476;2023-12-29T10:49:36;1.13;;;1.03;;
12165;SDS011;6146;48.128;11.476;2023-12-29T10:52:15;2.17;;;1.20;;
12165;SDS011;6146;48.128;11.476;2023-12-29T10:54:41;1.60;;;1.17;;
12165;SDS011;6146;48.128;11.476;2023-12-29T10:57:08;1.10;;;1.00;;
12165;SDS011;6146;48.128;11.476;2023-12-29T10:59:37;2.00;;;1.00;;
12165;SDS011;6146;48.128;11.476;2023-12-29T11:02:03;2.70;;;1.40;;
12165;SDS011;6146;48.128;11.476;2023-12-29T11:04:28;1.67;;;1.30;;
12165;SDS011;6146;48.128;11.476;2023-12-29T11:06:54;1.00;;;1.00;;
12165;SDS011;6146;48.128;11.476;2023-12-29T11:09:29;1.23;;;0.97;;
12165;SDS011;6146;48.128;11.476;2023-12-29T11:12:00;1.07;;;1.00;;
12165;SDS011;6146;48.128;11.476;2023-12-29T11:14:27;1.87;;;1.30;;
12165;SDS011;6146;48.128;11.476;2023-12-29T11:16:54;1.30;;;1.20;;
12165;SDS011;6146;48.128;11.476;2023-12-29T11:19:20;1.40;;;1.30;;
12165;SDS011;6146;48.128;11.476;2023-12-29T11:21:46;1.40;;;1.20;;
12165;SDS011;6146;48.128;11.476;2023-12-29T11:24:18;1.30;;;1.20;;
12165;SDS011;6146;48.128;11.476;2023-12-29T11:26:44;1.10;;;1.00;;
12165;SDS011;6146;48.128;11.476;2023-12-29T11:29:11;1.53;;;1.27;;
12165;SDS011;6146;48.128;11.476;2023-12-29T11:31:37;1.30;;;1.20;;
12165;SDS011;6146;48.128;11.476;2023-12-29T11:34:10;1.83;;;1.57;;
12165;SDS011;6146;48.128;11.476;2023-12-29T11:36:43;2.00;;;1.40;;
12165;SDS011;6146;48.128;11.476;2023-12-29T11:39:20;1.67;;;1.57;;
12165;SDS011;6146;48.128;11.476;2023-12-29T11:42:03;1.67;;;1.57;;
12165;SDS011;6146;48.128;11.476;2023-12-29T11:44:37;1.90;;;1.70;;
12165;SDS011;6146;48.128;11.476;2023-12-29T11:47:03;2.33;;;1.60;;
12165;SDS011;6146;48.128;11.476;2023-12-29T11:49:42;1.53;;;1.43;;
12165;SDS011;6146;48.128;11.476;2023-12-29T11:52:37;1.60;;;1.30;;
12165;SDS011;6146;48.128;11.476;2023-12-29T11:55:15;1.33;;;1.23;;
12165;SDS011;6146;48.128;11.476;2023-12-29T11:57:44;1.57;;;1.33;;
12165;SDS011;6146;48.128;11.476;2023-12-29T12:00:11;1.60;;;1.40;;
12165;SDS011;6146;48.128;11.476;2023-12-29T12:02:37;1.50;;;1.40;;
12165;SDS011;6146;48.128;11.476;2023-12-29T12:05:03;1.53;;;1.43;;
12165;SDS011;6146;48.128;11.476;2023-12-29T12:12:45;2.27;;;1.80;;
12165;SDS011;6146;48.128;11.476;2023-12-29T12:17:52;2.20;;;1.90;;
12165;SDS011;6146;48.128;11.476;2023-12-29T12:20:18;1.80;;;1.70;;
12165;SDS011;6146;48.128;11.476;2023-12-29T12:22:43;2.20;;;1.47;;
12165;SDS011;6146;48.128;11.476;2023-12-29T12:25:11;1.90;;;1.73;;
12165;SDS011;6146;48.128;11.476;2023-12-29T12:27:37;2.77;;;1.90;;
12165;SDS011;6146;48.128;11.476;2023-12-29T12:30:04;2.17;;;1.50;;
12165;SDS011;6146;48.128;11.476;2023-12-29T12:32:30;1.97;;;1.50;;
12165;SDS011;6146;48.128;11.476;2023-12-29T12:34:56;2.23;;;1.33;;
12165;SDS011;6146;48.128;11.476;2023-12-29T12:37:23;1.63;;;1.30;;
12165;SDS011;6146;48.128;11.476;2023-12-29T12:39:50;1.43;;;1.30;;
12165;SDS011;6146;48.128;11.476;2023-12-29T12:42:16;1.30;;;1.20;;
12165;SDS011;6146;48.128;11.476;2023-12-29T12:44:47;1.40;;;1.30;;
12165;SDS011;6146;48.128;11.476;2023-12-29T12:47:16;1.33;;;1.23;;
12165;SDS011;6146;48.128;11.476;2023-12-29T12:49:47;1.37;;;1.20;;
12165;SDS011;6146;48.128;11.476;2023-12-29T12:52:13;1.30;;;1.10;;
12165;SDS011;6146;48.128;11.476;2023-12-29T12:54:38;1.50;;;1.40;;
12165;SDS011;6146;48.128;11.476;2023-12-29T12:57:04;1.97;;;1.20;;
12165;SDS011;6146;48.128;11.476;2023-12-29T12:59:30;1.23;;;1.17;;
12165;SDS011;6146;48.128;11.476;2023-12-29T13:01:57;2.17;;;1.30;;
12165;SDS011;6146;48.128;11.476;2023-12-29T13:04:23;1.53;;;1.23;;
12165;SDS011;6146;48.128;11.476;2023-12-29T13:06:48;1.30;;;1.20;;
12165;SDS011;6146;48.128;11.476;2023-12-29T13:09:14;1.30;;;1.20;;
12165;SDS011;6146;48.128;11.476;2023-12-29T13:11:44;1.10;;;1.00;;
12165;SDS011;6146;48.128;11.476;2023-12-29T13:14:19;1.20;;;1.10;;
12165;SDS011;6146;48.128;11.476;2023-12-29T13:16:45;2.30;;;2.00;;
12165;SDS011;6146;48.128;11.476;2023-12-29T13:19:21;4.53;;;2.73;;
12165;SDS011;6146;48.128;11.476;2023-12-29T13:21:50;3.73;;;3.00;;
12165;SDS011;6146;48.128;11.476;2023-12-29T13:24:18;2.87;;;2.57;;
12165;SDS011;6146;48.128;11.476;2023-12-29T13:26:45;1.30;;;1.20;;
12165;SDS011;6146;48.128;11.476;2023-12-29T13:29:17;2.10;;;1.83;;
12165;SDS011;6146;48.128;11.476;2023-12-29T13:31:45;1.20;;;1.10;;
12165;SDS011;6146;48.128;11.476;2023-12-29T13:34:13;1.40;;;1.30;;
12165;SDS011;6146;48.128;11.476;2023-12-29T13:39:29;1.20;;;1.10;;
12165;SDS011;6146;48.128;11.476;2023-12-29T13:41:59;1.93;;;1.27;;
12165;SDS011;6146;48.128;11.476;2023-12-29T13:44:27;1.70;;;1.10;;
12165;SDS011;6146;48.128;11.476;2023-12-29T13:46:54;1.17;;;1.10;;
12165;SDS011;6146;48.128;11.476;2023-12-29T13:49:20;1.30;;;1.20;;
12165;SDS011;6146;48.128;11.476;2023-12-29T13:51:46;1.80;;;1.13;;
12165;SDS011;6146;48.128;11.476;2023-12-29T13:54:12;1.13;;;1.03;;
12165;SDS011;6146;48.128;11.476;2023-12-29T13:56:38;1.20;;;1.10;;
12165;SDS011;6146;48.128;11.476;2023-12-29T13:59:04;1.30;;;1.07;;
12165;SDS011;6146;48.128;11.476;2023-12-29T14:01:35;1.93;;;1.10;;
12165;SDS011;6146;48.128;11.476;2023-12-29T14:04:03;1.10;;;1.00;;
12165;SDS011;6146;48.128;11.476;2023-12-29T14:06:38;1.37;;;1.10;;
12165;SDS011;6146;48.128;11.476;2023-12-29T14:09:25;1.00;;;0.90;;
12165;SDS011;6146;48.128;11.476;2023-12-29T14:11:51;1.20;;;1.10;;
12165;SDS011;6146;48.128;11.476;2023-12-29T14:14:21;0.90;;;0.90;;
12165;SDS011;6146;48.128;11.476;2023-12-29T14:16:47;1.00;;;1.00;;
12165;SDS011;6146;48.128;11.476;2023-12-29T14:19:13;1.60;;;1.10;;
12165;SDS011;6146;48.128;11.476;2023-12-29T14:21:38;1.20;;;1.00;;
12165;SDS011;6146;48.128;11.476;2023-12-29T14:24:08;1.57;;;1.17;;
12165;SDS011;6146;48.128;11.476;2023-12-29T14:26:39;1.30;;;1.20;;
12165;SDS011;6146;48.128;11.476;2023-12-29T14:29:07;1.27;;;1.10;;
12165;SDS011;6146;48.128;11.476;2023-12-29T14:31:43;2.00;;;1.33;;
12165;SDS011;6146;48.128;11.476;2023-12-29T14:34:10;1.30;;;1.20;;
12165;SDS011;6146;48.128;11.476;2023-12-29T14:36:38;2.60;;;1.13;;
12165;SDS011;6146;48.128;11.476;2023-12-29T14:39:05;1.33;;;1.23;;
12165;SDS011;6146;48.128;11.476;2023-12-29T14:41:31;1.33;;;1.20;;
12165;SDS011;6146;48.128;11.476;2023-12-29T14:43:57;1.57;;;1.40;;
12165;SDS011;6146;48.128;11.476;2023-12-29T14:46:23;1.43;;;1.33;;
12165;SDS011;6146;48.128;11.476;2023-12-29T14:48:49;3.50;;;1.60;;
12165;SDS011;6146;48.128;11.476;2023-12-29T14:51:15;2.03;;;1.33;;
12165;SDS011;6146;48.128;11.476;2023-12-29T14:53:47;1.40;;;1.30;;
12165;SDS011;6146;48.128;11.476;2023-12-29T14:56:14;1.30;;;1.20;;
12165;SDS011;6146;48.128;11.476;2023-12-29T14:58:40;1.50;;;1.40;;
12165;SDS011;6146;48.128;11.476;2023-12-29T15:01:06;1.30;;;1.20;;
12165;SDS011;6146;48.128;11.476;2023-12-29T15:03:32;0.90;;;0.83;;